KGVL

Lee Gilmer Memorial Airport

Gainesville, Georgia, USA
METAR KGVL 232153Z AUTO 13006KT 10SM FEW065 23/14 A3032 RMK AO2 SLP255 T02330139
Observed Flight Rules
Feb-23 @ 21:53 UTC (37 minutes ago) Visual Flight Rules
Wind Visibility Clouds
130° at 6 knots 10 miles
  • Few at 6,500' AGL
Temperatures Readings
Current 23°C / 73°F
Dewpoint 14°C / 57°F
Humidity 57%
Altimeter 30.32" Hg
Pressure 1025.5 hPa
Elevation 386
METAR KGVL 232153Z AUTO 13006KT 10SM FEW065 23/14 A3032 RMK AO2 SLP255 T02330139
Observed Flight Rules
Feb-23 @ 21:53 UTC
(37 minutes ago)
VFR
Wind Visibility
130° at 6 knots 10 miles
Clouds
  • Few at 6,500' AGL
Temperature Dewpoint
23°C / 73°F 14°C / 57°F
Humidity Altimeter Pressure
57% 30.32" Hg 1025.5 hPa